sensor_id;sensor_type;location;lat;lon;timestamp;pressure;altitude;pressure_sealevel;temperature;humidity
45872;BME280;32333;55.844;-3.210;2024-01-25T00:01:52;100261.43;;;1.14;100.00
45872;BME280;32333;55.844;-3.210;2024-01-25T00:04:19;100267.81;;;1.05;100.00
45872;BME280;32333;55.844;-3.210;2024-01-25T00:06:47;100272.84;;;1.25;100.00
45872;BME280;32333;55.844;-3.210;2024-01-25T00:09:14;100271.11;;;0.98;100.00
45872;BME280;32333;55.844;-3.210;2024-01-25T00:11:43;100268.61;;;1.54;100.00
45872;BME280;32333;55.844;-3.210;2024-01-25T00:14:35;100274.28;;;1.00;100.00
45872;BME280;32333;55.844;-3.210;2024-01-25T00:17:03;100276.26;;;1.68;100.00
45872;BME280;32333;55.844;-3.210;2024-01-25T00:19:30;100287.78;;;2.19;100.00
45872;BME280;32333;55.844;-3.210;2024-01-25T00:21:59;100295.84;;;2.51;100.00
45872;BME280;32333;55.844;-3.210;2024-01-25T00:24:26;100288.23;;;2.08;100.00
45872;BME280;32333;55.844;-3.210;2024-01-25T00:26:54;100274.33;;;2.48;100.00
45872;BME280;32333;55.844;-3.210;2024-01-25T00:29:23;100267.66;;;1.43;100.00
45872;BME280;32333;55.844;-3.210;2024-01-25T00:31:51;100266.89;;;2.68;100.00
45872;BME280;32333;55.844;-3.210;2024-01-25T00:34:18;100269.36;;;2.11;100.00
45872;BME280;32333;55.844;-3.210;2024-01-25T00:36:47;100266.93;;;1.80;100.00
45872;BME280;32333;55.844;-3.210;2024-01-25T00:39:17;100258.84;;;2.10;100.00
45872;BME280;32333;55.844;-3.210;2024-01-25T00:41:47;100255.97;;;1.15;100.00
45872;BME280;32333;55.844;-3.210;2024-01-25T00:44:36;100253.94;;;1.51;100.00
45872;BME280;32333;55.844;-3.210;2024-01-25T00:47:04;100250.79;;;1.62;100.00
45872;BME280;32333;55.844;-3.210;2024-01-25T00:49:33;100250.30;;;1.48;100.00
45872;BME280;32333;55.844;-3.210;2024-01-25T00:52:04;100250.13;;;2.17;100.00
45872;BME280;32333;55.844;-3.210;2024-01-25T00:54:32;100248.21;;;2.80;100.00
45872;BME280;32333;55.844;-3.210;2024-01-25T00:57:00;100245.75;;;3.19;100.00
45872;BME280;32333;55.844;-3.210;2024-01-25T00:59:28;100239.54;;;2.96;100.00
45872;BME280;32333;55.844;-3.210;2024-01-25T01:01:58;100235.02;;;3.86;100.00
45872;BME280;32333;55.844;-3.210;2024-01-25T01:04:26;100242.36;;;2.81;100.00
45872;BME280;32333;55.844;-3.210;2024-01-25T01:06:54;100251.87;;;2.69;100.00
45872;BME280;32333;55.844;-3.210;2024-01-25T01:09:21;100251.40;;;2.78;100.00
45872;BME280;32333;55.844;-3.210;2024-01-25T01:11:50;100251.14;;;3.23;100.00
45872;BME280;32333;55.844;-3.210;2024-01-25T01:14:35;100248.93;;;3.48;100.00
45872;BME280;32333;55.844;-3.210;2024-01-25T01:17:03;100247.09;;;3.23;100.00
45872;BME280;32333;55.844;-3.210;2024-01-25T01:19:30;100251.06;;;2.28;100.00
45872;BME280;32333;55.844;-3.210;2024-01-25T01:21:58;100244.46;;;2.87;100.00
45872;BME280;32333;55.844;-3.210;2024-01-25T01:24:25;100243.41;;;3.39;100.00
45872;BME280;32333;55.844;-3.210;2024-01-25T01:26:53;100250.76;;;1.78;100.00
45872;BME280;32333;55.844;-3.210;2024-01-25T01:29:20;100251.80;;;2.71;100.00
45872;BME280;32333;55.844;-3.210;2024-01-25T01:31:49;100260.45;;;1.70;100.00
45872;BME280;32333;55.844;-3.210;2024-01-25T01:34:17;100262.73;;;1.62;100.00
45872;BME280;32333;55.844;-3.210;2024-01-25T01:36:44;100261.40;;;1.66;100.00
45872;BME280;32333;55.844;-3.210;2024-01-25T01:39:12;100253.75;;;1.72;100.00
45872;BME280;32333;55.844;-3.210;2024-01-25T01:41:39;100250.27;;;2.12;100.00
45872;BME280;32333;55.844;-3.210;2024-01-25T01:44:36;100248.50;;;1.99;100.00
45872;BME280;32333;55.844;-3.210;2024-01-25T01:47:03;100247.63;;;1.63;100.00
45872;BME280;32333;55.844;-3.210;2024-01-25T01:49:31;100244.35;;;1.12;100.00
45872;BME280;32333;55.844;-3.210;2024-01-25T01:52:00;100240.48;;;1.47;100.00
45872;BME280;32333;55.844;-3.210;2024-01-25T01:54:28;100231.87;;;1.10;100.00
45872;BME280;32333;55.844;-3.210;2024-01-25T01:56:55;100223.23;;;1.58;100.00
45872;BME280;32333;55.844;-3.210;2024-01-25T01:59:24;100218.27;;;0.84;100.00
45872;BME280;32333;55.844;-3.210;2024-01-25T02:01:51;100213.84;;;1.56;100.00
45872;BME280;32333;55.844;-3.210;2024-01-25T02:04:19;100211.64;;;1.59;100.00
45872;BME280;32333;55.844;-3.210;2024-01-25T02:06:47;100206.86;;;1.83;100.00
45872;BME280;32333;55.844;-3.210;2024-01-25T02:09:15;100204.21;;;2.39;100.00
45872;BME280;32333;55.844;-3.210;2024-01-25T02:11:42;100204.62;;;3.14;100.00
45872;BME280;32333;55.844;-3.210;2024-01-25T02:14:39;100202.24;;;3.22;100.00
45872;BME280;32333;55.844;-3.210;2024-01-25T02:17:07;100213.87;;;1.40;100.00
45872;BME280;32333;55.844;-3.210;2024-01-25T02:19:35;100228.81;;;1.86;100.00
45872;BME280;32333;55.844;-3.210;2024-01-25T02:22:05;100235.60;;;1.42;100.00
45872;BME280;32333;55.844;-3.210;2024-01-25T02:24:32;100244.78;;;2.08;100.00
45872;BME280;32333;55.844;-3.210;2024-01-25T02:27:00;100240.11;;;2.09;100.00
45872;BME280;32333;55.844;-3.210;2024-01-25T02:29:27;100232.21;;;0.97;100.00
45872;BME280;32333;55.844;-3.210;2024-01-25T02:31:55;100224.26;;;1.22;100.00
45872;BME280;32333;55.844;-3.210;2024-01-25T02:34:23;100216.55;;;1.55;100.00
45872;BME280;32333;55.844;-3.210;2024-01-25T02:36:51;100216.41;;;1.47;100.00
45872;BME280;32333;55.844;-3.210;2024-01-25T02:39:19;100213.85;;;1.63;100.00
45872;BME280;32333;55.844;-3.210;2024-01-25T02:41:46;100217.05;;;1.98;100.00
45872;BME280;32333;55.844;-3.210;2024-01-25T02:44:36;100211.74;;;1.08;100.00
45872;BME280;32333;55.844;-3.210;2024-01-25T02:47:03;100211.27;;;0.85;100.00
45872;BME280;32333;55.844;-3.210;2024-01-25T02:49:32;100208.83;;;2.01;100.00
45872;BME280;32333;55.844;-3.210;2024-01-25T02:52:00;100201.26;;;2.00;100.00
45872;BME280;32333;55.844;-3.210;2024-01-25T02:54:28;100191.15;;;0.22;100.00
45872;BME280;32333;55.844;-3.210;2024-01-25T02:56:55;100188.31;;;0.92;100.00
45872;BME280;32333;55.844;-3.210;2024-01-25T02:59:24;100184.45;;;1.61;100.00
45872;BME280;32333;55.844;-3.210;2024-01-25T03:01:52;100179.87;;;0.90;100.00
45872;BME280;32333;55.844;-3.210;2024-01-25T03:04:20;100185.68;;;1.71;100.00
45872;BME280;32333;55.844;-3.210;2024-01-25T03:06:49;100188.01;;;2.36;100.00
45872;BME280;32333;55.844;-3.210;2024-01-25T03:09:16;100178.20;;;2.05;100.00
45872;BME280;32333;55.844;-3.210;2024-01-25T03:11:44;100163.17;;;2.19;100.00
45872;BME280;32333;55.844;-3.210;2024-01-25T03:14:36;100155.30;;;2.99;100.00
45872;BME280;32333;55.844;-3.210;2024-01-25T03:17:03;100153.47;;;2.60;100.00
45872;BME280;32333;55.844;-3.210;2024-01-25T03:19:30;100156.39;;;2.26;100.00
45872;BME280;32333;55.844;-3.210;2024-01-25T03:21:58;100160.86;;;2.72;100.00
45872;BME280;32333;55.844;-3.210;2024-01-25T03:24:26;100164.19;;;1.97;100.00
45872;BME280;32333;55.844;-3.210;2024-01-25T03:26:53;100163.56;;;1.88;100.00
45872;BME280;32333;55.844;-3.210;2024-01-25T03:29:21;100177.65;;;1.73;100.00
45872;BME280;32333;55.844;-3.210;2024-01-25T03:31:49;100174.71;;;1.91;100.00
45872;BME280;32333;55.844;-3.210;2024-01-25T03:34:17;100161.85;;;1.45;100.00
45872;BME280;32333;55.844;-3.210;2024-01-25T03:36:44;100153.44;;;1.05;100.00
45872;BME280;32333;55.844;-3.210;2024-01-25T03:39:11;100135.81;;;2.23;100.00
45872;BME280;32333;55.844;-3.210;2024-01-25T03:41:39;100124.01;;;2.22;100.00
45872;BME280;32333;55.844;-3.210;2024-01-25T03:44:35;100135.00;;;1.77;100.00
45872;BME280;32333;55.844;-3.210;2024-01-25T03:47:02;100142.50;;;3.23;100.00
45872;BME280;32333;55.844;-3.210;2024-01-25T03:49:29;100135.22;;;3.82;100.00
45872;BME280;32333;55.844;-3.210;2024-01-25T03:51:57;100141.04;;;3.18;100.00
45872;BME280;32333;55.844;-3.210;2024-01-25T03:54:25;100137.28;;;2.90;100.00
45872;BME280;32333;55.844;-3.210;2024-01-25T03:56:57;100127.21;;;3.71;100.00
45872;BME280;32333;55.844;-3.210;2024-01-25T03:59:25;100124.55;;;3.59;100.00
45872;BME280;32333;55.844;-3.210;2024-01-25T04:01:53;100134.19;;;2.82;100.00
45872;BME280;32333;55.844;-3.210;2024-01-25T04:04:20;100126.14;;;2.54;100.00
45872;BME280;32333;55.844;-3.210;2024-01-25T04:06:48;100130.11;;;3.03;100.00
45872;BME280;32333;55.844;-3.210;2024-01-25T04:09:16;100131.24;;;2.43;100.00
45872;BME280;32333;55.844;-3.210;2024-01-25T04:11:43;100134.33;;;1.72;100.00
45872;BME280;32333;55.844;-3.210;2024-01-25T04:14:35;100133.43;;;0.39;100.00
45872;BME280;32333;55.844;-3.210;2024-01-25T04:17:02;100130.37;;;1.58;100.00
45872;BME280;32333;55.844;-3.210;2024-01-25T04:19:30;100116.50;;;1.48;100.00
45872;BME280;32333;55.844;-3.210;2024-01-25T04:21:57;100112.90;;;0.47;100.00
45872;BME280;32333;55.844;-3.210;2024-01-25T04:24:24;100108.06;;;1.34;100.00
45872;BME280;32333;55.844;-3.210;2024-01-25T04:26:51;100095.00;;;3.57;100.00
45872;BME280;32333;55.844;-3.210;2024-01-25T04:29:19;100082.91;;;3.91;100.00
45872;BME280;32333;55.844;-3.210;2024-01-25T04:31:46;100070.25;;;5.09;100.00
45872;BME280;32333;55.844;-3.210;2024-01-25T04:34:15;100069.79;;;4.05;100.00
45872;BME280;32333;55.844;-3.210;2024-01-25T04:36:43;100062.01;;;5.04;100.00
45872;BME280;32333;55.844;-3.210;2024-01-25T04:39:10;100059.29;;;3.86;100.00
45872;BME280;32333;55.844;-3.210;2024-01-25T04:41:37;100061.11;;;4.15;100.00
45872;BME280;32333;55.844;-3.210;2024-01-25T04:44:34;100053.63;;;4.59;100.00
45872;BME280;32333;55.844;-3.210;2024-01-25T04:47:01;100049.70;;;4.38;100.00
45872;BME280;32333;55.844;-3.210;2024-01-25T04:49:29;100047.12;;;4.11;100.00
45872;BME280;32333;55.844;-3.210;2024-01-25T04:51:56;100047.27;;;3.12;100.00
45872;BME280;32333;55.844;-3.210;2024-01-25T04:54:24;100039.09;;;4.05;100.00
45872;BME280;32333;55.844;-3.210;2024-01-25T04:56:53;100035.01;;;4.53;100.00
45872;BME280;32333;55.844;-3.210;2024-01-25T04:59:21;100030.66;;;3.17;100.00
45872;BME280;32333;55.844;-3.210;2024-01-25T05:01:48;100022.13;;;3.52;100.00
45872;BME280;32333;55.844;-3.210;2024-01-25T05:04:16;100025.87;;;2.41;100.00
45872;BME280;32333;55.844;-3.210;2024-01-25T05:06:44;100028.29;;;2.79;100.00
45872;BME280;32333;55.844;-3.210;2024-01-25T05:09:11;100017.54;;;4.32;100.00
45872;BME280;32333;55.844;-3.210;2024-01-25T05:11:39;100008.25;;;4.49;100.00
45872;BME280;32333;55.844;-3.210;2024-01-25T05:14:34;100002.80;;;4.39;100.00
45872;BME280;32333;55.844;-3.210;2024-01-25T05:17:02;99995.07;;;4.98;100.00
45872;BME280;32333;55.844;-3.210;2024-01-25T05:19:30;99991.16;;;4.69;100.00
45872;BME280;32333;55.844;-3.210;2024-01-25T05:21:57;99986.45;;;4.64;100.00
45872;BME280;32333;55.844;-3.210;2024-01-25T05:24:24;99975.80;;;5.47;100.00
45872;BME280;32333;55.844;-3.210;2024-01-25T05:26:51;99972.92;;;5.10;100.00
45872;BME280;32333;55.844;-3.210;2024-01-25T05:29:19;99974.11;;;5.00;100.00
45872;BME280;32333;55.844;-3.210;2024-01-25T05:31:46;99969.28;;;4.86;100.00
45872;BME280;32333;55.844;-3.210;2024-01-25T05:34:14;99966.43;;;4.84;100.00
45872;BME280;32333;55.844;-3.210;2024-01-25T05:36:41;99957.17;;;5.81;100.00
45872;BME280;32333;55.844;-3.210;2024-01-25T05:39:08;99965.91;;;5.19;100.00
45872;BME280;32333;55.844;-3.210;2024-01-25T05:41:36;99966.07;;;5.30;100.00
45872;BME280;32333;55.844;-3.210;2024-01-25T05:44:35;99963.74;;;5.60;100.00
45872;BME280;32333;55.844;-3.210;2024-01-25T05:47:02;99963.72;;;4.16;100.00
45872;BME280;32333;55.844;-3.210;2024-01-25T05:49:29;99955.11;;;3.54;100.00
45872;BME280;32333;55.844;-3.210;2024-01-25T05:51:56;99949.69;;;3.25;100.00
45872;BME280;32333;55.844;-3.210;2024-01-25T05:54:24;99940.25;;;3.49;100.00
45872;BME280;32333;55.844;-3.210;2024-01-25T05:56:51;99943.45;;;2.52;100.00
45872;BME280;32333;55.844;-3.210;2024-01-25T05:59:18;99939.68;;;2.79;100.00
45872;BME280;32333;55.844;-3.210;2024-01-25T06:01:46;99936.72;;;1.99;100.00
45872;BME280;32333;55.844;-3.210;2024-01-25T06:04:13;99930.46;;;2.47;100.00
45872;BME280;32333;55.844;-3.210;2024-01-25T06:06:41;99923.20;;;2.72;100.00
45872;BME280;32333;55.844;-3.210;2024-01-25T06:09:08;99923.09;;;2.65;100.00
45872;BME280;32333;55.844;-3.210;2024-01-25T06:11:35;99923.71;;;3.18;100.00
45872;BME280;32333;55.844;-3.210;2024-01-25T06:14:35;99918.77;;;3.90;100.00
45872;BME280;32333;55.844;-3.210;2024-01-25T06:17:02;99907.76;;;3.17;100.00
45872;BME280;32333;55.844;-3.210;2024-01-25T06:19:30;99896.61;;;3.11;100.00
45872;BME280;32333;55.844;-3.210;2024-01-25T06:21:57;99888.59;;;3.56;100.00
45872;BME280;32333;55.844;-3.210;2024-01-25T06:24:25;99878.61;;;3.03;100.00
45872;BME280;32333;55.844;-3.210;2024-01-25T06:26:53;99870.04;;;3.04;100.00
45872;BME280;32333;55.844;-3.210;2024-01-25T06:29:20;99866.47;;;3.33;100.00
45872;BME280;32333;55.844;-3.210;2024-01-25T06:31:47;99860.07;;;4.47;100.00
45872;BME280;32333;55.844;-3.210;2024-01-25T06:34:14;99862.91;;;3.73;100.00
45872;BME280;32333;55.844;-3.210;2024-01-25T06:36:42;99863.38;;;3.87;100.00
45872;BME280;32333;55.844;-3.210;2024-01-25T06:39:09;99847.32;;;5.49;100.00
45872;BME280;32333;55.844;-3.210;2024-01-25T06:41:37;99838.67;;;5.21;100.00
45872;BME280;32333;55.844;-3.210;2024-01-25T06:44:35;99841.59;;;5.50;100.00
45872;BME280;32333;55.844;-3.210;2024-01-25T06:47:02;99849.03;;;4.24;100.00
45872;BME280;32333;55.844;-3.210;2024-01-25T06:49:30;99844.04;;;4.49;100.00
45872;BME280;32333;55.844;-3.210;2024-01-25T06:51:58;99841.07;;;3.77;100.00
45872;BME280;32333;55.844;-3.210;2024-01-25T06:54:25;99837.13;;;3.58;100.00
45872;BME280;32333;55.844;-3.210;2024-01-25T06:56:53;99837.70;;;4.30;100.00
45872;BME280;32333;55.844;-3.210;2024-01-25T06:59:20;99840.73;;;4.11;100.00
45872;BME280;32333;55.844;-3.210;2024-01-25T07:01:47;99842.90;;;3.87;100.00
45872;BME280;32333;55.844;-3.210;2024-01-25T07:04:15;99844.85;;;4.32;100.00
45872;BME280;32333;55.844;-3.210;2024-01-25T07:06:42;99837.40;;;3.25;100.00
45872;BME280;32333;55.844;-3.210;2024-01-25T07:09:09;99837.01;;;2.84;100.00
45872;BME280;32333;55.844;-3.210;2024-01-25T07:11:37;99841.45;;;2.81;100.00
45872;BME280;32333;55.844;-3.210;2024-01-25T07:14:34;99831.09;;;3.18;100.00
45872;BME280;32333;55.844;-3.210;2024-01-25T07:17:02;99835.79;;;3.43;100.00
45872;BME280;32333;55.844;-3.210;2024-01-25T07:19:29;99836.13;;;3.23;100.00
45872;BME280;32333;55.844;-3.210;2024-01-25T07:21:57;99837.57;;;3.33;100.00
45872;BME280;32333;55.844;-3.210;2024-01-25T07:24:24;99831.18;;;4.59;100.00
45872;BME280;32333;55.844;-3.210;2024-01-25T07:26:51;99826.14;;;4.29;100.00
45872;BME280;32333;55.844;-3.210;2024-01-25T07:29:19;99807.86;;;5.45;100.00
45872;BME280;32333;55.844;-3.210;2024-01-25T07:31:46;99798.08;;;4.69;100.00
45872;BME280;32333;55.844;-3.210;2024-01-25T07:34:13;99791.84;;;3.80;100.00
45872;BME280;32333;55.844;-3.210;2024-01-25T07:36:41;99783.52;;;4.55;100.00
45872;BME280;32333;55.844;-3.210;2024-01-25T07:39:09;99778.72;;;4.37;100.00
45872;BME280;32333;55.844;-3.210;2024-01-25T07:41:36;99765.07;;;4.89;100.00
45872;BME280;32333;55.844;-3.210;2024-01-25T07:44:34;99761.62;;;4.35;100.00
45872;BME280;32333;55.844;-3.210;2024-01-25T07:47:01;99756.23;;;4.65;100.00
45872;BME280;32333;55.844;-3.210;2024-01-25T07:49:29;99744.51;;;4.45;100.00
45872;BME280;32333;55.844;-3.210;2024-01-25T07:51:57;99736.53;;;4.35;100.00
45872;BME280;32333;55.844;-3.210;2024-01-25T07:54:24;99738.42;;;3.70;100.00
45872;BME280;32333;55.844;-3.210;2024-01-25T07:56:52;99740.63;;;3.39;100.00
45872;BME280;32333;55.844;-3.210;2024-01-25T07:59:19;99739.39;;;2.52;100.00
45872;BME280;32333;55.844;-3.210;2024-01-25T08:01:47;99732.19;;;3.71;100.00
45872;BME280;32333;55.844;-3.210;2024-01-25T08:04:14;99733.71;;;3.20;100.00
45872;BME280;32333;55.844;-3.210;2024-01-25T08:06:43;99732.05;;;3.87;100.00
45872;BME280;32333;55.844;-3.210;2024-01-25T08:09:10;99724.21;;;3.31;100.00
45872;BME280;32333;55.844;-3.210;2024-01-25T08:11:37;99716.75;;;3.31;100.00
45872;BME280;32333;55.844;-3.210;2024-01-25T08:14:35;99714.78;;;2.99;100.00
45872;BME280;32333;55.844;-3.210;2024-01-25T08:17:02;99710.11;;;3.52;100.00
45872;BME280;32333;55.844;-3.210;2024-01-25T08:19:30;99704.83;;;3.64;100.00
45872;BME280;32333;55.844;-3.210;2024-01-25T08:21:57;99705.11;;;3.27;100.00
45872;BME280;32333;55.844;-3.210;2024-01-25T08:24:24;99700.15;;;3.65;100.00
45872;BME280;32333;55.844;-3.210;2024-01-25T08:26:52;99692.70;;;4.03;100.00
45872;BME280;32333;55.844;-3.210;2024-01-25T08:29:19;99684.21;;;4.17;100.00
45872;BME280;32333;55.844;-3.210;2024-01-25T08:31:47;99679.85;;;4.35;100.00
45872;BME280;32333;55.844;-3.210;2024-01-25T08:34:14;99669.89;;;3.69;100.00
45872;BME280;32333;55.844;-3.210;2024-01-25T08:36:41;99662.25;;;3.84;100.00
45872;BME280;32333;55.844;-3.210;2024-01-25T08:39:09;99655.06;;;3.34;100.00
45872;BME280;32333;55.844;-3.210;2024-01-25T08:41:38;99636.65;;;4.32;100.00
45872;BME280;32333;55.844;-3.210;2024-01-25T08:44:34;99630.89;;;5.55;100.00
45872;BME280;32333;55.844;-3.210;2024-01-25T08:47:02;99619.87;;;4.77;100.00
45872;BME280;32333;55.844;-3.210;2024-01-25T08:49:29;99606.79;;;4.72;100.00
45872;BME280;32333;55.844;-3.210;2024-01-25T08:51:56;99605.80;;;4.40;100.00
45872;BME280;32333;55.844;-3.210;2024-01-25T08:54:23;99598.01;;;4.45;100.00
45872;BME280;32333;55.844;-3.210;2024-01-25T08:56:51;99594.85;;;4.31;100.00
45872;BME280;32333;55.844;-3.210;2024-01-25T08:59:18;99598.39;;;6.13;100.00
45872;BME280;32333;55.844;-3.210;2024-01-25T09:01:45;99597.11;;;5.56;100.00
45872;BME280;32333;55.844;-3.210;2024-01-25T09:04:12;99605.84;;;5.69;100.00
45872;BME280;32333;55.844;-3.210;2024-01-25T09:06:40;99599.95;;;5.61;100.00
45872;BME280;32333;55.844;-3.210;2024-01-25T09:09:08;99591.77;;;6.15;100.00
45872;BME280;32333;55.844;-3.210;2024-01-25T09:11:35;99588.90;;;6.13;100.00
45872;BME280;32333;55.844;-3.210;2024-01-25T09:14:34;99587.61;;;5.73;100.00
45872;BME280;32333;55.844;-3.210;2024-01-25T09:17:02;99579.80;;;5.52;100.00
45872;BME280;32333;55.844;-3.210;2024-01-25T09:19:29;99572.10;;;3.67;100.00
45872;BME280;32333;55.844;-3.210;2024-01-25T09:21:57;99555.78;;;3.72;100.00
45872;BME280;32333;55.844;-3.210;2024-01-25T09:24:25;99551.04;;;3.90;100.00
45872;BME280;32333;55.844;-3.210;2024-01-25T09:26:52;99548.69;;;4.52;100.00
45872;BME280;32333;55.844;-3.210;2024-01-25T09:29:19;99539.24;;;4.04;100.00
45872;BME280;32333;55.844;-3.210;2024-01-25T09:31:46;99537.94;;;4.96;100.00
45872;BME280;32333;55.844;-3.210;2024-01-25T09:34:14;99531.25;;;4.83;100.00
45872;BME280;32333;55.844;-3.210;2024-01-25T09:36:41;99525.28;;;5.00;100.00
45872;BME280;32333;55.844;-3.210;2024-01-25T09:39:09;99524.54;;;4.87;100.00
45872;BME280;32333;55.844;-3.210;2024-01-25T09:41:36;99518.94;;;3.62;100.00
45872;BME280;32333;55.844;-3.210;2024-01-25T09:44:35;99509.25;;;4.64;100.00
45872;BME280;32333;55.844;-3.210;2024-01-25T09:47:03;99508.60;;;4.61;100.00
45872;BME280;32333;55.844;-3.210;2024-01-25T09:49:32;99507.66;;;4.53;100.00
45872;BME280;32333;55.844;-3.210;2024-01-25T09:52:01;99504.91;;;4.18;100.00
45872;BME280;32333;55.844;-3.210;2024-01-25T09:54:30;99496.26;;;4.37;100.00
45872;BME280;32333;55.844;-3.210;2024-01-25T09:57:01;99489.16;;;5.01;100.00
45872;BME280;32333;55.844;-3.210;2024-01-25T09:59:30;99489.70;;;4.55;100.00
45872;BME280;32333;55.844;-3.210;2024-01-25T10:01:58;99487.28;;;4.09;100.00
45872;BME280;32333;55.844;-3.210;2024-01-25T10:04:26;99483.31;;;3.61;100.00
45872;BME280;32333;55.844;-3.210;2024-01-25T10:06:55;99472.79;;;3.84;100.00
45872;BME280;32333;55.844;-3.210;2024-01-25T10:09:22;99465.97;;;4.10;100.00
45872;BME280;32333;55.844;-3.210;2024-01-25T10:11:50;99463.13;;;3.80;100.00
45872;BME280;32333;55.844;-3.210;2024-01-25T10:14:35;99453.02;;;4.12;100.00
45872;BME280;32333;55.844;-3.210;2024-01-25T10:17:02;99452.44;;;4.63;100.00
45872;BME280;32333;55.844;-3.210;2024-01-25T10:19:30;99451.14;;;4.70;100.00
45872;BME280;32333;55.844;-3.210;2024-01-25T10:21:57;99446.28;;;5.28;100.00
45872;BME280;32333;55.844;-3.210;2024-01-25T10:24:24;99447.10;;;4.75;100.00
45872;BME280;32333;55.844;-3.210;2024-01-25T10:26:51;99444.07;;;5.15;100.00
45872;BME280;32333;55.844;-3.210;2024-01-25T10:29:18;99434.00;;;4.40;100.00
45872;BME280;32333;55.844;-3.210;2024-01-25T10:31:46;99429.63;;;4.86;100.00
45872;BME280;32333;55.844;-3.210;2024-01-25T10:34:14;99427.36;;;5.12;100.00
45872;BME280;32333;55.844;-3.210;2024-01-25T10:36:41;99420.05;;;5.05;100.00
45872;BME280;32333;55.844;-3.210;2024-01-25T10:39:09;99418.90;;;5.06;100.00
45872;BME280;32333;55.844;-3.210;2024-01-25T10:41:38;99419.17;;;4.51;100.00
45872;BME280;32333;55.844;-3.210;2024-01-25T10:44:34;99410.17;;;4.88;100.00
45872;BME280;32333;55.844;-3.210;2024-01-25T10:47:01;99402.68;;;4.97;100.00
45872;BME280;32333;55.844;-3.210;2024-01-25T10:49:30;99396.50;;;4.09;100.00
45872;BME280;32333;55.844;-3.210;2024-01-25T10:51:58;99390.03;;;3.92;100.00
45872;BME280;32333;55.844;-3.210;2024-01-25T10:54:26;99378.86;;;3.92;100.00
45872;BME280;32333;55.844;-3.210;2024-01-25T10:56:54;99379.96;;;4.30;100.00
45872;BME280;32333;55.844;-3.210;2024-01-25T10:59:21;99373.62;;;4.95;100.00
45872;BME280;32333;55.844;-3.210;2024-01-25T11:01:49;99364.84;;;4.83;100.00
45872;BME280;32333;55.844;-3.210;2024-01-25T11:04:17;99352.07;;;4.74;100.00
45872;BME280;32333;55.844;-3.210;2024-01-25T11:06:46;99342.42;;;4.51;100.00
45872;BME280;32333;55.844;-3.210;2024-01-25T11:09:18;99334.23;;;4.66;100.00
45872;BME280;32333;55.844;-3.210;2024-01-25T11:11:47;99322.71;;;5.01;100.00
45872;BME280;32333;55.844;-3.210;2024-01-25T11:14:37;99309.71;;;4.70;100.00
45872;BME280;32333;55.844;-3.210;2024-01-25T11:17:15;99303.32;;;4.39;100.00
45872;BME280;32333;55.844;-3.210;2024-01-25T11:19:44;99293.89;;;4.36;100.00
45872;BME280;32333;55.844;-3.210;2024-01-25T11:22:11;99289.82;;;4.49;100.00
45872;BME280;32333;55.844;-3.210;2024-01-25T11:24:38;99283.72;;;4.44;100.00
45872;BME280;32333;55.844;-3.210;2024-01-25T11:27:06;99274.82;;;4.71;100.00
45872;BME280;32333;55.844;-3.210;2024-01-25T11:29:33;99269.24;;;5.15;100.00
45872;BME280;32333;55.844;-3.210;2024-01-25T11:32:03;99254.29;;;5.07;100.00
45872;BME280;32333;55.844;-3.210;2024-01-25T11:34:31;99259.94;;;5.59;100.00
45872;BME280;32333;55.844;-3.210;2024-01-25T11:36:58;99253.08;;;5.31;100.00
45872;BME280;32333;55.844;-3.210;2024-01-25T11:39:26;99244.47;;;5.27;100.00
45872;BME280;32333;55.844;-3.210;2024-01-25T11:41:54;99245.59;;;5.14;100.00
45872;BME280;32333;55.844;-3.210;2024-01-25T11:44:35;99241.41;;;5.43;100.00
45872;BME280;32333;55.844;-3.210;2024-01-25T11:47:02;99233.75;;;5.98;100.00
45872;BME280;32333;55.844;-3.210;2024-01-25T11:49:30;99232.06;;;5.27;100.00
45872;BME280;32333;55.844;-3.210;2024-01-25T11:51:58;99229.42;;;5.43;100.00
45872;BME280;32333;55.844;-3.210;2024-01-25T11:54:26;99220.55;;;5.46;100.00
45872;BME280;32333;55.844;-3.210;2024-01-25T11:56:53;99221.99;;;5.43;100.00
45872;BME280;32333;55.844;-3.210;2024-01-25T11:59:21;99218.10;;;5.74;100.00
45872;BME280;32333;55.844;-3.210;2024-01-25T12:01:49;99219.93;;;6.03;100.00
45872;BME280;32333;55.844;-3.210;2024-01-25T12:04:16;99217.51;;;5.90;100.00
45872;BME280;32333;55.844;-3.210;2024-01-25T12:06:43;99200.91;;;5.67;100.00
45872;BME280;32333;55.844;-3.210;2024-01-25T12:09:11;99195.85;;;6.52;100.00
45872;BME280;32333;55.844;-3.210;2024-01-25T12:11:40;99188.25;;;6.42;100.00
45872;BME280;32333;55.844;-3.210;2024-01-25T12:14:34;99180.12;;;6.19;100.00
45872;BME280;32333;55.844;-3.210;2024-01-25T12:17:03;99177.57;;;6.36;100.00
45872;BME280;32333;55.844;-3.210;2024-01-25T12:19:30;99161.93;;;6.21;100.00
45872;BME280;32333;55.844;-3.210;2024-01-25T12:21:57;99152.31;;;6.21;100.00
45872;BME280;32333;55.844;-3.210;2024-01-25T12:24:24;99153.21;;;6.01;100.00
45872;BME280;32333;55.844;-3.210;2024-01-25T12:26:51;99140.52;;;6.27;100.00
45872;BME280;32333;55.844;-3.210;2024-01-25T12:29:18;99140.43;;;6.03;100.00
45872;BME280;32333;55.844;-3.210;2024-01-25T12:31:45;99125.25;;;6.21;100.00
45872;BME280;32333;55.844;-3.210;2024-01-25T12:34:14;99117.82;;;6.63;100.00
45872;BME280;32333;55.844;-3.210;2024-01-25T12:36:41;99107.02;;;6.24;100.00
45872;BME280;32333;55.844;-3.210;2024-01-25T12:39:08;99104.49;;;6.58;100.00
45872;BME280;32333;55.844;-3.210;2024-01-25T12:41:36;99106.09;;;6.35;100.00
45872;BME280;32333;55.844;-3.210;2024-01-25T12:44:34;99106.83;;;6.44;100.00
45872;BME280;32333;55.844;-3.210;2024-01-25T12:47:02;99106.78;;;5.96;100.00
45872;BME280;32333;55.844;-3.210;2024-01-25T12:49:30;99100.31;;;6.68;100.00
45872;BME280;32333;55.844;-3.210;2024-01-25T12:51:57;99099.11;;;6.51;100.00
45872;BME280;32333;55.844;-3.210;2024-01-25T12:54:24;99095.35;;;6.54;100.00
45872;BME280;32333;55.844;-3.210;2024-01-25T12:56:52;99091.89;;;6.70;100.00
45872;BME280;32333;55.844;-3.210;2024-01-25T12:59:19;99092.49;;;6.38;100.00